createdAt,value
2022-08-17T00:00:43.992Z,3.90
2022-08-17T00:03:41.179Z,4.05
2022-08-17T00:06:29.671Z,4.45
2022-08-17T00:09:18.798Z,4.65
2022-08-17T00:12:41.652Z,4.32
2022-08-17T00:15:13.452Z,4.32
2022-08-17T00:17:59.958Z,4.30
2022-08-17T00:20:46.473Z,4.22
2022-08-17T00:23:32.397Z,4.55
2022-08-17T00:26:44.598Z,4.40
2022-08-17T00:29:25.809Z,4.37
2022-08-17T00:33:14.162Z,4.28
2022-08-17T00:35:23.773Z,3.78
2022-08-17T00:38:12.186Z,4.60
2022-08-17T00:41:02.171Z,4.22
2022-08-17T00:43:51.932Z,4.55
2022-08-17T00:46:41.054Z,4.53
2022-08-17T00:49:27.615Z,4.20
2022-08-17T00:52:16.752Z,4.30
2022-08-17T00:55:03.993Z,3.90
2022-08-17T00:57:55.600Z,4.80
2022-08-17T01:00:44.683Z,4.57
2022-08-17T01:03:31.428Z,4.62
2022-08-17T01:06:18.316Z,4.85
2022-08-17T01:09:05.051Z,4.53
2022-08-17T01:11:52.309Z,4.45
2022-08-17T01:14:39.821Z,4.18
2022-08-17T01:17:29.019Z,4.60
2022-08-17T01:20:16.843Z,4.72
2022-08-17T01:23:03.817Z,4.37
2022-08-17T01:25:52.612Z,4.82
2022-08-17T01:28:55.492Z,4.75
2022-08-17T01:31:48.230Z,5.05
2022-08-17T01:34:42.626Z,5.03
2022-08-17T01:37:38.422Z,5.12
2022-08-17T01:40:38.963Z,5.20
2022-08-17T01:43:31.255Z,4.95
2022-08-17T01:46:31.173Z,4.37
2022-08-17T01:49:17.568Z,5.30
2022-08-17T01:52:08.908Z,4.95
2022-08-17T01:54:55.505Z,4.95
2022-08-17T01:57:42.110Z,4.82
2022-08-17T02:00:28.299Z,4.70
2022-08-17T02:03:36.173Z,4.85
2022-08-17T02:06:27.762Z,4.93
2022-08-17T02:09:16.739Z,4.57
2022-08-17T02:12:37.802Z,5.22
2022-08-17T02:15:12.394Z,4.90
2022-08-17T02:17:58.540Z,4.72
2022-08-17T02:20:44.794Z,4.78
2022-08-17T02:23:34.306Z,4.80
2022-08-17T02:26:25.806Z,5.10
2022-08-17T02:29:14.668Z,5.45
2022-08-17T02:32:01.911Z,5.82
2022-08-17T02:34:48.747Z,5.32
2022-08-17T02:37:35.411Z,4.80
2022-08-17T02:40:36.065Z,5.22
2022-08-17T02:46:09.103Z,4.93
2022-08-17T02:48:55.768Z,5.40
2022-08-17T02:51:41.594Z,5.40
2022-08-17T02:54:40.717Z,5.37
2022-08-17T02:57:27.965Z,5.03
2022-08-17T03:00:19.027Z,5.43
2022-08-17T03:03:06.332Z,5.30
2022-08-17T03:05:53.348Z,5.10
2022-08-17T03:08:39.574Z,4.68
2022-08-17T03:11:25.767Z,4.65
2022-08-17T03:14:11.657Z,5.43
2022-08-17T03:16:58.240Z,4.90
2022-08-17T03:19:44.589Z,5.05
2022-08-17T03:22:38.563Z,5.00
2022-08-17T03:25:31.450Z,5.45
2022-08-17T03:28:21.790Z,6.03
2022-08-17T03:31:07.920Z,5.60
2022-08-17T03:33:54.156Z,5.75
2022-08-17T03:36:40.481Z,5.87
2022-08-17T03:39:26.871Z,5.55
2022-08-17T03:42:32.278Z,5.45
2022-08-17T03:45:41.380Z,6.30
2022-08-17T03:48:46.410Z,5.68
2022-08-17T03:51:51.357Z,5.70
2022-08-17T03:54:55.903Z,5.93
2022-08-17T03:57:42.308Z,6.15
2022-08-17T04:00:28.650Z,5.47
2022-08-17T04:03:15.154Z,5.93
2022-08-17T04:06:02.215Z,5.45
2022-08-17T04:08:48.657Z,5.78
2022-08-17T04:11:36.201Z,5.72
2022-08-17T04:14:22.699Z,6.00
2022-08-17T04:17:08.929Z,6.03
2022-08-17T04:19:55.834Z,5.20
2022-08-17T04:23:20.777Z,5.78
2022-08-17T04:26:07.706Z,7.07
2022-08-17T04:28:54.373Z,6.20
2022-08-17T04:31:40.527Z,6.32
2022-08-17T04:34:26.901Z,6.57
2022-08-17T04:37:13.441Z,6.78
2022-08-17T04:40:18.333Z,6.75
2022-08-17T04:43:07.503Z,6.80
2022-08-17T04:46:05.329Z,7.15
2022-08-17T04:48:53.890Z,6.62
2022-08-17T04:51:54.455Z,7.07
2022-08-17T04:54:42.740Z,6.50
2022-08-17T04:57:28.927Z,6.30
2022-08-17T05:00:25.951Z,6.62
2022-08-17T05:03:12.594Z,6.62
2022-08-17T05:05:59.027Z,6.80
2022-08-17T05:08:45.230Z,6.82
2022-08-17T05:11:31.644Z,6.93
2022-08-17T05:14:18.048Z,7.25
2022-08-17T05:17:07.461Z,6.87
2022-08-17T05:19:57.222Z,7.37
2022-08-17T05:22:51.531Z,6.47
2022-08-17T05:25:47.755Z,6.87
2022-08-17T05:28:34.977Z,6.93
2022-08-17T05:31:21.836Z,7.10
2022-08-17T05:34:08.082Z,6.68
2022-08-17T05:36:54.094Z,7.03
2022-08-17T05:39:40.390Z,6.85
2022-08-17T05:42:26.620Z,7.00
2022-08-17T05:45:15.709Z,6.93
2022-08-17T05:48:01.865Z,7.70
2022-08-17T05:51:09.499Z,7.32
2022-08-17T05:54:23.391Z,7.03
2022-08-17T05:57:33.574Z,7.10
2022-08-17T06:00:30.373Z,6.82
2022-08-17T06:03:48.380Z,7.03
2022-08-17T06:07:26.912Z,7.03
2022-08-17T06:10:20.603Z,7.05
2022-08-17T06:13:18.862Z,6.12
2022-08-17T06:16:33.689Z,6.72
2022-08-17T06:19:34.199Z,7.00
2022-08-17T06:22:22.935Z,6.32
2022-08-17T06:25:15.651Z,7.18
2022-08-17T06:28:09.143Z,7.60
2022-08-17T06:31:07.054Z,6.40
2022-08-17T06:33:54.981Z,7.12
2022-08-17T06:37:11.332Z,6.93
2022-08-17T06:40:40.001Z,6.25
2022-08-17T06:43:34.232Z,6.85
2022-08-17T06:46:43.546Z,6.40
2022-08-17T06:49:33.202Z,6.93
2022-08-17T06:52:45.380Z,6.93
2022-08-17T06:55:44.194Z,6.30
2022-08-17T06:58:33.265Z,7.28
2022-08-17T07:01:25.174Z,7.00
2022-08-17T07:04:16.877Z,6.90
2022-08-17T07:07:27.203Z,6.82
2022-08-17T07:10:13.974Z,7.30
2022-08-17T07:13:14.942Z,6.93
2022-08-17T07:16:14.766Z,6.53
2022-08-17T07:19:00.979Z,7.10
2022-08-17T07:21:58.537Z,7.47
2022-08-17T07:24:59.656Z,7.03
2022-08-17T07:30:46.992Z,6.25
2022-08-17T07:33:36.856Z,6.82
2022-08-17T07:36:29.554Z,6.53
2022-08-17T07:39:26.353Z,6.70
2022-08-17T07:42:12.531Z,7.03
2022-08-17T07:45:18.979Z,6.78
2022-08-17T07:48:20.277Z,7.53
2022-08-17T07:51:28.840Z,6.72
2022-08-17T07:54:36.818Z,7.00
2022-08-17T07:57:35.750Z,6.55
2022-08-17T08:00:27.284Z,6.68
2022-08-17T08:03:27.354Z,6.55
2022-08-17T08:06:25.012Z,6.25
2022-08-17T08:09:28.870Z,6.37
2022-08-17T08:12:33.371Z,6.25
2022-08-17T08:15:25.669Z,6.20
2022-08-17T08:18:56.038Z,6.60
2022-08-17T08:21:52.186Z,6.80
2022-08-17T08:24:53.131Z,6.57
2022-08-17T08:27:45.473Z,5.97
2022-08-17T08:30:33.174Z,6.35
2022-08-17T08:33:37.201Z,5.97
2022-08-17T08:36:58.119Z,6.12
2022-08-17T08:39:58.580Z,5.30
2022-08-17T08:43:22.653Z,5.45
2022-08-17T08:46:30.578Z,5.97
2022-08-17T08:50:06.687Z,5.80
2022-08-17T08:52:53.397Z,5.40
2022-08-17T08:56:11.914Z,5.62
2022-08-17T08:59:22.909Z,5.78
2022-08-17T09:02:43.366Z,5.82
2022-08-17T09:05:45.059Z,5.10
2022-08-17T09:08:50.414Z,5.12
2022-08-17T09:12:02.911Z,5.00
2022-08-17T09:15:01.929Z,4.60
2022-08-17T09:19:01.795Z,5.07
2022-08-17T09:21:20.973Z,5.65
2022-08-17T09:24:29.841Z,5.87
2022-08-17T09:27:18.930Z,5.22
2022-08-17T09:30:09.561Z,5.60
2022-08-17T09:33:07.338Z,5.37
2022-08-17T09:36:00.859Z,5.30
2022-08-17T09:39:09.517Z,4.80
2022-08-17T09:42:02.623Z,5.55
2022-08-17T09:45:26.264Z,5.00
2022-08-17T09:48:20.829Z,5.55
2022-08-17T09:51:13.029Z,5.75
2022-08-17T09:54:20.975Z,5.80
2022-08-17T09:57:31.511Z,5.47
2022-08-17T10:00:29.132Z,5.10
2022-08-17T10:03:53.823Z,5.37
2022-08-17T10:07:17.316Z,5.55
2022-08-17T10:10:16.568Z,5.28
2022-08-17T10:13:20.071Z,5.22
2022-08-17T10:16:24.812Z,5.03
2022-08-17T10:19:22.414Z,4.87
2022-08-17T10:22:39.729Z,5.37
2022-08-17T10:26:00.032Z,5.18
2022-08-17T10:29:16.847Z,5.00
2022-08-17T10:32:09.273Z,5.28
2022-08-17T10:35:31.080Z,4.78
2022-08-17T10:38:42.769Z,5.03
2022-08-17T10:41:36.857Z,4.70
2022-08-17T10:44:41.310Z,4.80
2022-08-17T10:47:55.713Z,4.12
2022-08-17T10:51:00.250Z,4.57
2022-08-17T10:53:48.467Z,4.28
2022-08-17T10:56:47.013Z,4.07
2022-08-17T10:59:36.613Z,5.00
2022-08-17T11:02:49.458Z,4.85
2022-08-17T11:06:03.887Z,5.45
2022-08-17T11:09:02.033Z,5.00
2022-08-17T11:12:39.456Z,5.62
2022-08-17T11:15:41.373Z,6.00
2022-08-17T11:18:50.820Z,8.00
2022-08-17T11:21:52.026Z,5.25
2022-08-17T11:24:44.861Z,5.55
2022-08-17T11:27:34.961Z,5.55
2022-08-17T11:30:48.912Z,5.25
2022-08-17T11:33:36.783Z,5.75
2022-08-17T11:36:47.774Z,5.32
2022-08-17T11:39:54.436Z,5.55
2022-08-17T11:42:58.761Z,4.93
2022-08-17T11:46:06.174Z,5.87
2022-08-17T11:49:11.523Z,5.47
2022-08-17T11:52:01.331Z,5.35
2022-08-17T11:54:48.848Z,5.57
2022-08-17T11:57:40.983Z,4.72
2022-08-17T12:00:51.863Z,4.85
2022-08-17T12:03:38.591Z,4.75
2022-08-17T12:06:41.893Z,4.72
2022-08-17T12:09:31.072Z,4.68
2022-08-17T12:12:20.698Z,4.43
2022-08-17T12:15:11.178Z,5.17
2022-08-17T12:17:58.749Z,4.35
2022-08-17T12:20:56.680Z,3.90
2022-08-17T12:23:52.229Z,3.90
2022-08-17T12:26:39.087Z,3.97
2022-08-17T12:29:38.621Z,4.07
2022-08-17T12:32:28.302Z,3.72
2022-08-17T12:35:30.359Z,3.87
2022-08-17T12:38:32.447Z,3.70
2022-08-17T12:41:38.489Z,4.05
2022-08-17T12:44:34.465Z,3.75
2022-08-17T12:47:23.129Z,3.90
2022-08-17T12:50:28.549Z,4.20
2022-08-17T12:53:24.993Z,3.80
2022-08-17T12:56:12.922Z,3.37
2022-08-17T12:58:59.899Z,3.58
2022-08-17T13:01:49.017Z,3.53
2022-08-17T13:04:39.877Z,3.62
2022-08-17T13:07:29.354Z,3.30
2022-08-17T13:10:21.433Z,3.55
2022-08-17T13:13:23.030Z,3.20
2022-08-17T13:16:17.226Z,3.72
2022-08-17T13:19:15.251Z,3.47
2022-08-17T13:22:02.056Z,3.58
2022-08-17T13:24:54.504Z,3.40
2022-08-17T13:27:42.173Z,3.50
2022-08-17T13:30:33.212Z,3.33
2022-08-17T13:33:44.803Z,3.47
2022-08-17T13:36:33.615Z,3.42
2022-08-17T13:39:25.129Z,3.30
2022-08-17T13:42:52.724Z,3.22
2022-08-17T13:45:50.761Z,3.28
2022-08-17T13:48:37.375Z,3.50
2022-08-17T13:51:26.997Z,3.83
2022-08-17T13:54:25.506Z,3.67
2022-08-17T13:57:22.541Z,3.97
2022-08-17T14:00:17.487Z,4.15
2022-08-17T14:03:05.172Z,4.20
2022-08-17T14:05:52.474Z,4.07
2022-08-17T14:08:38.878Z,3.80
2022-08-17T14:11:24.728Z,3.90
2022-08-17T14:14:12.666Z,3.90
2022-08-17T14:16:59.379Z,3.62
2022-08-17T14:19:45.687Z,3.72
2022-08-17T14:22:34.573Z,3.83
2022-08-17T14:25:25.182Z,3.40
2022-08-17T14:30:57.721Z,3.80
2022-08-17T14:33:43.861Z,3.62
2022-08-17T14:36:31.238Z,3.50
2022-08-17T14:39:18.588Z,4.18
2022-08-17T14:42:05.202Z,3.80
2022-08-17T14:44:52.968Z,3.80
2022-08-17T14:47:40.678Z,3.65
2022-08-17T14:50:27.228Z,3.80
2022-08-17T14:53:16.186Z,4.30
2022-08-17T14:56:02.607Z,3.37
2022-08-17T14:58:49.380Z,3.22
2022-08-17T15:01:36.891Z,3.40
2022-08-17T15:04:23.274Z,3.40
2022-08-17T15:07:09.104Z,3.58
2022-08-17T15:09:56.696Z,4.00
2022-08-17T15:12:43.555Z,3.30
2022-08-17T15:15:30.463Z,3.30
2022-08-17T15:18:17.110Z,3.62
2022-08-17T15:21:04.915Z,3.45
2022-08-17T15:23:51.193Z,3.37
2022-08-17T15:26:39.090Z,3.95
2022-08-17T15:29:24.873Z,3.90
2022-08-17T15:32:11.113Z,3.60
2022-08-17T15:35:00.258Z,3.62
2022-08-17T15:37:46.832Z,3.80
2022-08-17T15:40:33.839Z,3.70
2022-08-17T15:43:28.452Z,3.60
2022-08-17T15:46:21.010Z,3.67
2022-08-17T15:49:08.503Z,4.03
2022-08-17T15:51:54.725Z,3.35
2022-08-17T15:54:41.086Z,3.58
2022-08-17T15:57:31.442Z,3.60
2022-08-17T16:00:18.418Z,3.47
2022-08-17T16:03:47.144Z,3.45
2022-08-17T16:06:11.821Z,3.37
2022-08-17T16:08:59.515Z,3.42
2022-08-17T16:11:46.043Z,3.37
2022-08-17T16:14:41.837Z,3.53
2022-08-17T16:17:38.808Z,3.35
2022-08-17T16:20:26.932Z,3.62
2022-08-17T16:23:18.481Z,3.80
2022-08-17T16:26:06.628Z,3.33
2022-08-17T16:28:53.482Z,3.37
2022-08-17T16:31:41.903Z,3.60
2022-08-17T16:34:27.827Z,3.42
2022-08-17T16:37:14.340Z,3.22
2022-08-17T16:40:00.524Z,3.40
2022-08-17T16:42:48.712Z,3.47
2022-08-17T16:45:40.307Z,3.50
2022-08-17T16:48:28.958Z,3.40
2022-08-17T16:51:15.255Z,3.47
2022-08-17T16:54:01.879Z,3.20
2022-08-17T16:56:50.178Z,3.10
2022-08-17T16:59:40.812Z,3.70
2022-08-17T17:02:32.694Z,3.65
2022-08-17T17:05:56.210Z,3.67
2022-08-17T17:08:48.569Z,3.53
2022-08-17T17:11:50.899Z,3.53
2022-08-17T17:14:40.873Z,3.45
2022-08-17T17:17:34.255Z,3.25
2022-08-17T17:20:25.780Z,3.42
2022-08-17T17:23:12.107Z,3.53
2022-08-17T17:26:05.107Z,3.87
2022-08-17T17:29:22.358Z,3.33
2022-08-17T17:32:19.486Z,3.62
2022-08-17T17:35:11.974Z,3.75
2022-08-17T17:37:59.748Z,4.05
2022-08-17T17:40:50.326Z,3.80
2022-08-17T17:43:40.223Z,3.87
2022-08-17T17:46:31.420Z,4.00
2022-08-17T17:52:12.375Z,3.75
2022-08-17T17:55:39.513Z,3.90
2022-08-17T17:58:55.771Z,4.30
2022-08-17T18:01:54.534Z,4.75
2022-08-17T18:04:52.779Z,4.00
2022-08-17T18:07:43.861Z,3.83
2022-08-17T18:10:55.788Z,4.72
2022-08-17T18:13:58.678Z,5.03
2022-08-17T18:16:46.548Z,4.80
2022-08-17T18:19:33.308Z,4.30
2022-08-17T18:22:21.367Z,4.03
2022-08-17T18:25:39.970Z,4.22
2022-08-17T18:28:33.582Z,4.40
2022-08-17T18:31:21.465Z,4.53
2022-08-17T18:34:43.876Z,4.57
2022-08-17T18:37:32.156Z,4.35
2022-08-17T18:40:19.650Z,4.18
2022-08-17T18:43:10.535Z,3.72
2022-08-17T18:49:28.488Z,3.97
2022-08-17T18:52:17.750Z,4.45
2022-08-17T18:55:14.787Z,4.37
2022-08-17T18:58:15.596Z,4.55
2022-08-17T19:01:02.428Z,4.32
2022-08-17T19:03:50.420Z,4.40
2022-08-17T19:06:37.789Z,4.45
2022-08-17T19:09:32.654Z,4.68
2022-08-17T19:12:30.063Z,4.40
2022-08-17T19:15:19.304Z,5.00
2022-08-17T19:18:15.791Z,4.53
2022-08-17T19:21:16.421Z,4.10
2022-08-17T19:24:19.883Z,4.60
2022-08-17T19:27:15.578Z,4.45
2022-08-17T19:30:08.828Z,4.37
2022-08-17T19:32:58.382Z,4.22
2022-08-17T19:36:03.725Z,4.90
2022-08-17T19:39:11.374Z,5.25
2022-08-17T19:42:28.384Z,5.10
2022-08-17T19:45:46.766Z,4.90
2022-08-17T19:49:10.534Z,4.90
2022-08-17T19:52:06.381Z,5.15
2022-08-17T19:55:07.208Z,4.97
2022-08-17T19:58:05.148Z,6.72
2022-08-17T20:00:52.325Z,5.37
2022-08-17T20:03:56.347Z,4.45
2022-08-17T20:06:44.474Z,5.12
2022-08-17T20:09:40.097Z,5.00
2022-08-17T20:12:30.869Z,4.55
2022-08-17T20:15:25.965Z,4.55
2022-08-17T20:18:34.240Z,4.65
2022-08-17T20:21:26.859Z,4.50
2022-08-17T20:24:21.271Z,4.68
2022-08-17T20:27:15.566Z,5.57
2022-08-17T20:30:24.348Z,4.32
2022-08-17T20:33:23.218Z,5.15
2022-08-17T20:36:19.233Z,4.85
2022-08-17T20:39:06.106Z,4.55
2022-08-17T20:42:04.253Z,4.22
2022-08-17T20:44:53.789Z,4.78
2022-08-17T20:48:18.595Z,4.62
2022-08-17T20:51:16.123Z,3.67
2022-08-17T20:54:47.039Z,4.05
2022-08-17T20:57:33.194Z,4.30
2022-08-17T21:00:28.808Z,4.18
2022-08-17T21:03:25.061Z,4.37
2022-08-17T21:06:17.630Z,4.22
2022-08-17T21:09:13.136Z,4.53
2022-08-17T21:12:03.876Z,4.15
2022-08-17T21:15:01.158Z,4.47
2022-08-17T21:17:50.316Z,4.37
2022-08-17T21:20:57.194Z,3.75
2022-08-17T21:23:58.336Z,4.43
2022-08-17T21:27:05.339Z,4.10
2022-08-17T21:30:06.806Z,4.30
2022-08-17T21:33:23.846Z,3.70
2022-08-17T21:36:12.961Z,3.72
2022-08-17T21:39:03.572Z,3.65
2022-08-17T21:41:55.654Z,3.83
2022-08-17T21:44:48.528Z,4.05
2022-08-17T21:47:34.930Z,3.72
2022-08-17T21:50:24.423Z,3.58
2022-08-17T21:53:25.390Z,4.30
2022-08-17T21:56:22.933Z,3.80
2022-08-17T21:59:27.377Z,4.28
2022-08-17T22:02:20.460Z,3.87
2022-08-17T22:05:10.282Z,3.65
2022-08-17T22:08:03.751Z,3.53
2022-08-17T22:10:51.373Z,3.50
2022-08-17T22:13:38.630Z,3.35
2022-08-17T22:16:28.829Z,3.85
2022-08-17T22:19:15.468Z,3.72
2022-08-17T22:22:20.757Z,3.60
2022-08-17T22:25:08.537Z,3.47
2022-08-17T22:27:56.483Z,3.40
2022-08-17T22:30:47.014Z,3.33
2022-08-17T22:33:33.513Z,3.62
2022-08-17T22:36:30.030Z,3.20
2022-08-17T22:39:17.147Z,3.22
2022-08-17T22:42:03.118Z,3.50
2022-08-17T22:44:51.007Z,3.00
2022-08-17T22:47:42.947Z,3.40
2022-08-17T22:50:31.151Z,3.42
2022-08-17T22:53:38.987Z,3.55
2022-08-17T22:56:44.208Z,3.47
2022-08-17T22:59:43.696Z,3.10
2022-08-17T23:02:35.094Z,3.55
2022-08-17T23:05:21.944Z,3.35
2022-08-17T23:08:08.629Z,3.00
2022-08-17T23:10:54.886Z,3.37
2022-08-17T23:13:41.339Z,3.60
2022-08-17T23:16:30.707Z,3.62
2022-08-17T23:19:19.634Z,3.30
2022-08-17T23:22:08.590Z,3.45
2022-08-17T23:24:55.014Z,3.50
2022-08-17T23:27:41.824Z,3.70
2022-08-17T23:30:31.299Z,3.17
2022-08-17T23:33:21.915Z,3.28
2022-08-17T23:36:18.315Z,3.67
2022-08-17T23:39:06.350Z,3.25
2022-08-17T23:41:53.536Z,3.20
2022-08-17T23:44:41.723Z,3.40
2022-08-17T23:47:28.606Z,3.22
2022-08-17T23:50:15.306Z,3.67
2022-08-17T23:53:03.270Z,3.50
2022-08-17T23:56:09.437Z,3.92
2022-08-17T23:58:58.492Z,3.58
